Time;durP1;ratioP1;P1;durP2;ratioP2;P2;SDS_P1;SDS_P2;PMS_P1;PMS_P2;Temp;Humidity;BMP_temperature;BMP_pressure;BME280_temperature;BME280_humidity;BME280_pressure;Samples;Min_cycle;Max_cycle;Signal;HPM_P1;HPM_P2
2020/12/15 00:00:50;;;;;;;;;;;21.40;52.80;;;;;;5089715;28;1385;-64
2020/12/15 00:03:16;;;;;;;;;;;21.40;52.90;;;;;;5093727;28;1332;-65
2020/12/15 00:05:41;;;;;;;;;;;21.40;53.00;;;;;;5093412;28;1304;-63
2020/12/15 00:08:07;;;;;;;;;;;21.40;53.00;;;;;;5093321;28;1279;-65
2020/12/15 00:10:32;;;;;;;;;;;21.30;53.00;;;;;;5093456;28;1323;-65
2020/12/15 00:12:58;;;;;;;;;;;21.40;53.10;;;;;;5075670;28;1362;-64
2020/12/15 00:15:23;;;;;;;;;;;21.30;53.10;;;;;;5075023;28;1290;-65
2020/12/15 00:17:49;;;;;;;;;;;21.30;53.10;;;;;;5093098;28;1914;-65
2020/12/15 00:20:14;;;;;;;;;;;21.30;53.20;;;;;;5093959;28;1254;-65
2020/12/15 00:22:40;;;;;;;;;;;21.30;53.20;;;;;;5093405;28;1294;-64
2020/12/15 00:25:06;;;;;;;;;;;21.30;53.20;;;;;;5073972;28;1370;-65
2020/12/15 00:27:31;;;;;;;;;;;21.30;53.30;;;;;;5075010;28;1326;-65
2020/12/15 00:29:56;;;;;;;;;;;21.20;53.30;;;;;;5077389;28;1281;-64
2020/12/15 00:32:22;;;;;;;;;;;21.20;53.30;;;;;;5072491;28;1299;-64
2020/12/15 00:34:47;;;;;;;;;;;21.20;53.30;;;;;;5075283;28;1048;-65
2020/12/15 00:37:13;;;;;;;;;;;21.20;53.40;;;;;;5074513;28;1902;-65
2020/12/15 00:39:38;;;;;;;;;;;21.20;53.40;;;;;;5074409;28;1479;-65
2020/12/15 00:42:04;;;;;;;;;;;21.20;53.50;;;;;;5092878;28;1423;-65
2020/12/15 00:44:30;;;;;;;;;;;21.20;53.50;;;;;;5074681;28;1294;-64
2020/12/15 00:46:55;;;;;;;;;;;21.10;53.50;;;;;;5092961;28;1255;-65
2020/12/15 00:49:21;;;;;;;;;;;21.10;53.60;;;;;;5074444;28;1331;-65
2020/12/15 00:51:49;;;;;;;;;;;21.10;53.60;;;;;;5059802;28;1127;-64
2020/12/15 00:54:15;;;;;;;;;;;21.10;53.70;;;;;;5072285;28;1315;-64
2020/12/15 00:56:40;;;;;;;;;;;21.10;53.70;;;;;;5071234;28;1354;-64
2020/12/15 00:59:06;;;;;;;;;;;21.10;53.70;;;;;;5074257;28;1914;-65
2020/12/15 01:01:31;;;;;;;;;;;21.10;53.80;;;;;;5074288;28;1331;-65
2020/12/15 01:03:57;;;;;;;;;;;21.00;53.70;;;;;;5091669;28;1260;-64
2020/12/15 01:06:22;;;;;;;;;;;21.00;53.80;;;;;;5092320;28;1252;-64
2020/12/15 01:08:48;;;;;;;;;;;21.10;53.90;;;;;;5087674;28;1287;-65
2020/12/15 01:11:13;;;;;;;;;;;21.00;53.90;;;;;;5063261;28;1202;-65
2020/12/15 01:13:39;;;;;;;;;;;21.00;53.90;;;;;;5064281;28;1236;-65
2020/12/15 01:16:05;;;;;;;;;;;21.00;53.90;;;;;;5065385;28;1256;-65
2020/12/15 01:18:31;;;;;;;;;;;21.00;54.00;;;;;;5053292;28;1902;-64
2020/12/15 01:20:56;;;;;;;;;;;21.00;54.00;;;;;;5064747;28;1366;-65
2020/12/15 01:23:22;;;;;;;;;;;21.00;54.60;;;;;;5068307;28;1228;-65
2020/12/15 01:25:47;;;;;;;;;;;21.00;54.90;;;;;;5064907;28;1259;-64
2020/12/15 01:28:13;;;;;;;;;;;21.00;55.00;;;;;;5064005;28;1294;-65
2020/12/15 01:30:38;;;;;;;;;;;21.00;54.70;;;;;;5048913;28;1209;-65
2020/12/15 01:33:04;;;;;;;;;;;21.00;54.90;;;;;;5067647;28;1263;-65
2020/12/15 01:35:29;;;;;;;;;;;21.00;55.00;;;;;;5063495;28;1224;-64
2020/12/15 01:37:54;;;;;;;;;;;21.00;55.10;;;;;;5064175;28;1898;-65
2020/12/15 01:40:20;;;;;;;;;;;21.00;55.20;;;;;;5048897;28;1322;-65
2020/12/15 01:42:46;;;;;;;;;;;21.00;55.20;;;;;;5065958;28;1267;-65
2020/12/15 01:45:11;;;;;;;;;;;21.00;55.30;;;;;;5063670;28;1224;-65
2020/12/15 01:47:37;;;;;;;;;;;21.00;55.40;;;;;;5052936;28;1251;-64
2020/12/15 01:50:02;;;;;;;;;;;21.00;55.40;;;;;;5058395;28;1474;-64
2020/12/15 01:52:29;;;;;;;;;;;21.00;55.40;;;;;;5038146;28;1286;-65
2020/12/15 01:54:54;;;;;;;;;;;21.00;55.60;;;;;;5054016;28;1371;-65
2020/12/15 01:57:20;;;;;;;;;;;21.00;55.60;;;;;;5053603;28;1965;-65
2020/12/15 01:59:45;;;;;;;;;;;21.00;55.60;;;;;;5038184;28;1298;-64
2020/12/15 02:02:11;;;;;;;;;;;21.00;55.60;;;;;;5034804;28;1265;-65
2020/12/15 02:04:36;;;;;;;;;;;21.00;55.60;;;;;;5033689;28;1281;-65
2020/12/15 02:07:02;;;;;;;;;;;21.00;55.70;;;;;;5050480;28;1379;-64
2020/12/15 02:09:27;;;;;;;;;;;21.00;55.80;;;;;;5051049;28;1332;-64
2020/12/15 02:11:53;;;;;;;;;;;21.00;55.80;;;;;;5052306;28;1330;-65
2020/12/15 02:14:18;;;;;;;;;;;21.00;55.80;;;;;;5050561;28;1351;-65
2020/12/15 02:16:45;;;;;;;;;;;21.00;55.80;;;;;;5051704;28;1287;-66
2020/12/15 02:19:14;;;;;;;;;;;21.00;55.90;;;;;;5050407;28;1938;-64
2020/12/15 02:21:49;;;;;;;;;;;21.00;56.00;;;;;;5051879;28;1299;-65
2020/12/15 02:24:14;;;;;;;;;;;21.00;56.00;;;;;;5033907;28;1247;-65
2020/12/15 02:26:40;;;;;;;;;;;21.00;56.00;;;;;;5051883;28;1319;-65
2020/12/15 02:29:05;;;;;;;;;;;21.00;56.00;;;;;;5052061;28;1228;-65
2020/12/15 02:31:31;;;;;;;;;;;21.00;56.00;;;;;;5034114;28;1316;-65
2020/12/15 02:33:56;;;;;;;;;;;20.90;56.00;;;;;;5051327;28;1177;-65
2020/12/15 02:36:21;;;;;;;;;;;21.00;56.10;;;;;;5065812;28;1291;-65
2020/12/15 02:38:47;;;;;;;;;;;21.00;56.70;;;;;;5071880;28;1930;-65
2020/12/15 02:41:12;;;;;;;;;;;21.00;56.10;;;;;;5071604;28;1373;-64
2020/12/15 02:43:38;;;;;;;;;;;21.00;56.20;;;;;;5071883;28;1300;-64
2020/12/15 02:46:03;;;;;;;;;;;21.00;56.10;;;;;;5072167;28;1303;-65
2020/12/15 02:48:29;;;;;;;;;;;21.10;55.90;;;;;;5058121;28;1370;-65
2020/12/15 02:50:54;;;;;;;;;;;21.10;55.70;;;;;;5071868;28;1366;-66
2020/12/15 02:53:20;;;;;;;;;;;21.20;55.60;;;;;;5071937;28;1275;-65
2020/12/15 02:55:45;;;;;;;;;;;21.30;55.60;;;;;;5071964;28;1368;-65
2020/12/15 02:58:11;;;;;;;;;;;21.30;55.30;;;;;;5067565;28;1913;-66
2020/12/15 03:00:36;;;;;;;;;;;21.40;55.20;;;;;;5066963;28;1296;-66
2020/12/15 03:03:02;;;;;;;;;;;21.50;55.00;;;;;;5052970;28;1343;-65
2020/12/15 03:05:27;;;;;;;;;;;21.60;54.90;;;;;;5071266;28;1319;-64
2020/12/15 03:07:53;;;;;;;;;;;21.70;54.80;;;;;;5071455;28;1402;-66
2020/12/15 03:10:18;;;;;;;;;;;21.80;54.60;;;;;;5053742;28;1305;-66
2020/12/15 03:12:44;;;;;;;;;;;21.90;54.40;;;;;;5072136;28;1306;-65
2020/12/15 03:15:09;;;;;;;;;;;21.90;54.30;;;;;;5070944;28;1349;-64
2020/12/15 03:17:35;;;;;;;;;;;22.00;54.10;;;;;;5071377;28;1898;-65
2020/12/15 03:20:00;;;;;;;;;;;22.00;54.00;;;;;;5053100;28;1335;-64
2020/12/15 03:22:25;;;;;;;;;;;22.10;53.90;;;;;;5071669;28;1370;-65
2020/12/15 03:24:51;;;;;;;;;;;22.20;53.80;;;;;;5071677;28;1302;-66
2020/12/15 03:27:16;;;;;;;;;;;22.20;53.70;;;;;;5056677;28;1307;-65
2020/12/15 03:29:42;;;;;;;;;;;22.30;53.60;;;;;;5060844;28;1205;-65
2020/12/15 03:32:07;;;;;;;;;;;22.30;53.60;;;;;;5055033;28;1319;-65
2020/12/15 03:34:33;;;;;;;;;;;22.30;53.50;;;;;;5054809;28;1496;-65
2020/12/15 03:36:58;;;;;;;;;;;22.30;53.50;;;;;;5075134;28;1357;-65
2020/12/15 03:39:24;;;;;;;;;;;22.40;53.60;;;;;;5073927;28;1898;-64
2020/12/15 03:41:49;;;;;;;;;;;22.40;53.60;;;;;;5057260;28;1299;-66
2020/12/15 03:44:15;;;;;;;;;;;22.40;53.50;;;;;;5050846;28;1343;-66
2020/12/15 03:46:40;;;;;;;;;;;22.40;53.50;;;;;;5074747;28;1392;-64
2020/12/15 03:49:05;;;;;;;;;;;22.50;53.40;;;;;;5074545;28;1312;-66
2020/12/15 03:51:31;;;;;;;;;;;22.50;53.40;;;;;;5074816;28;1467;-64
2020/12/15 03:53:56;;;;;;;;;;;22.50;53.40;;;;;;5074345;28;1292;-65
2020/12/15 03:56:23;;;;;;;;;;;22.60;53.40;;;;;;5074739;28;1339;-65
2020/12/15 03:58:48;;;;;;;;;;;22.60;53.30;;;;;;5065003;28;1906;-66
2020/12/15 04:01:14;;;;;;;;;;;22.60;53.30;;;;;;5072836;28;1390;-65
2020/12/15 04:03:39;;;;;;;;;;;22.60;53.30;;;;;;5074137;28;1354;-65
2020/12/15 04:06:06;;;;;;;;;;;22.60;53.30;;;;;;5073814;28;1176;-65
2020/12/15 04:08:31;;;;;;;;;;;22.60;53.40;;;;;;5074435;28;1322;-65
2020/12/15 04:10:56;;;;;;;;;;;22.70;53.40;;;;;;5056598;28;1361;-65
2020/12/15 04:13:22;;;;;;;;;;;22.70;53.40;;;;;;5074433;28;1359;-63
2020/12/15 04:15:47;;;;;;;;;;;22.70;53.30;;;;;;5073860;28;1384;-65
2020/12/15 04:18:13;;;;;;;;;;;22.70;53.30;;;;;;5056380;28;1955;-65
2020/12/15 04:20:38;;;;;;;;;;;22.70;53.40;;;;;;5056042;28;1144;-64
2020/12/15 04:23:04;;;;;;;;;;;22.80;53.50;;;;;;5074314;28;1362;-66
2020/12/15 04:25:29;;;;;;;;;;;22.80;53.50;;;;;;5055589;28;1373;-65
2020/12/15 04:27:55;;;;;;;;;;;22.80;53.40;;;;;;5073924;28;1324;-65
2020/12/15 04:30:20;;;;;;;;;;;22.80;53.40;;;;;;5054612;28;1225;-66
2020/12/15 04:32:46;;;;;;;;;;;22.80;53.40;;;;;;5053124;28;1495;-66
2020/12/15 04:35:12;;;;;;;;;;;22.80;53.40;;;;;;5051887;28;1307;-65
2020/12/15 04:37:37;;;;;;;;;;;22.80;53.30;;;;;;5051153;28;1969;-65
2020/12/15 04:40:03;;;;;;;;;;;22.80;53.20;;;;;;5052723;28;1169;-65
2020/12/15 04:42:28;;;;;;;;;;;22.90;53.30;;;;;;5054085;28;1311;-65
2020/12/15 04:44:54;;;;;;;;;;;22.90;53.30;;;;;;5052301;28;1298;-65
2020/12/15 04:47:23;;;;;;;;;;;22.90;53.30;;;;;;5051710;28;1155;-65
2020/12/15 04:49:59;;;;;;;;;;;22.90;53.30;;;;;;5062035;28;1366;-66
2020/12/15 04:52:25;;;;;;;;;;;22.90;53.30;;;;;;5053902;28;1284;-66
2020/12/15 04:54:51;;;;;;;;;;;22.90;53.30;;;;;;5068853;28;1342;-66
2020/12/15 04:57:18;;;;;;;;;;;23.00;53.30;;;;;;5068445;28;1979;-66
2020/12/15 04:59:44;;;;;;;;;;;23.00;53.30;;;;;;5068881;28;1268;-65
2020/12/15 05:02:09;;;;;;;;;;;23.00;53.20;;;;;;5068645;28;1294;-65
2020/12/15 05:04:37;;;;;;;;;;;23.00;53.20;;;;;;5068555;28;1422;-66
2020/12/15 05:07:03;;;;;;;;;;;23.00;53.20;;;;;;5053703;28;1359;-66
2020/12/15 05:09:29;;;;;;;;;;;23.00;53.20;;;;;;5068710;28;1208;-65
2020/12/15 05:11:55;;;;;;;;;;;23.00;53.20;;;;;;5068801;28;1171;-65
2020/12/15 05:14:20;;;;;;;;;;;23.00;53.20;;;;;;5068055;28;1236;-65
2020/12/15 05:16:46;;;;;;;;;;;23.00;53.20;;;;;;5068304;28;1347;-64
2020/12/15 05:19:11;;;;;;;;;;;23.00;53.40;;;;;;5068129;28;1969;-66
2020/12/15 05:21:37;;;;;;;;;;;23.00;53.50;;;;;;5053244;28;1246;-65
2020/12/15 05:24:02;;;;;;;;;;;23.00;53.50;;;;;;5052816;28;1357;-64
2020/12/15 05:26:28;;;;;;;;;;;23.00;53.50;;;;;;5068335;28;1471;-65
2020/12/15 05:29:20;;;;;;;;;;;23.00;53.50;;;;;;5052875;28;1274;-66
2020/12/15 05:31:45;;;;;;;;;;;23.00;53.60;;;;;;5049981;28;1496;-65
2020/12/15 05:34:11;;;;;;;;;;;23.00;53.70;;;;;;5068381;28;1322;-65
2020/12/15 05:36:47;;;;;;;;;;;23.00;53.90;;;;;;5052743;28;1328;-66
2020/12/15 05:39:13;;;;;;;;;;;23.00;54.00;;;;;;5068027;28;1965;-64
2020/12/15 05:41:38;;;;;;;;;;;23.00;54.20;;;;;;5052692;28;1378;-66
2020/12/15 05:44:03;;;;;;;;;;;22.90;54.30;;;;;;5067745;28;1313;-65
2020/12/15 05:46:29;;;;;;;;;;;23.00;54.50;;;;;;5052368;28;1271;-65
2020/12/15 05:49:02;;;;;;;;;;;23.00;54.60;;;;;;5057794;28;1275;-65
2020/12/15 05:51:40;;;;;;;;;;;22.90;55.30;;;;;;5071275;28;1446;-66
2020/12/15 05:54:09;;;;;;;;;;;22.90;54.70;;;;;;5070642;28;1274;-65
2020/12/15 05:56:36;;;;;;;;;;;22.90;54.70;;;;;;5070993;28;1376;-65
2020/12/15 05:59:10;;;;;;;;;;;22.90;55.00;;;;;;5071218;28;1965;-65
2020/12/15 06:01:35;;;;;;;;;;;22.80;55.10;;;;;;5054633;28;1256;-66
2020/12/15 06:04:01;;;;;;;;;;;22.80;55.20;;;;;;5054206;28;1466;-65
2020/12/15 06:06:27;;;;;;;;;;;22.80;55.80;;;;;;5072072;28;1267;-65
2020/12/15 06:08:52;;;;;;;;;;;22.80;56.50;;;;;;5071040;28;1326;-66
2020/12/15 06:11:18;;;;;;;;;;;22.80;56.20;;;;;;5070957;28;1342;-64
2020/12/15 06:13:44;;;;;;;;;;;22.80;56.80;;;;;;5071050;28;1303;-64
2020/12/15 06:16:09;;;;;;;;;;;22.70;57.00;;;;;;5071199;28;1343;-64
2020/12/15 06:18:34;;;;;;;;;;;22.70;57.60;;;;;;5070905;28;1902;-65
2020/12/15 06:21:06;;;;;;;;;;;22.70;56.60;;;;;;5070555;28;1299;-65
2020/12/15 06:23:31;;;;;;;;;;;22.70;56.60;;;;;;5071029;28;1336;-65
2020/12/15 06:25:57;;;;;;;;;;;22.60;56.90;;;;;;5053677;28;1207;-60
2020/12/15 06:28:30;;;;;;;;;;;22.70;56.70;;;;;;5046928;28;1946;-65
2020/12/15 06:30:57;;;;;;;;;;;22.60;56.60;;;;;;5031317;28;1255;-62
2020/12/15 06:33:32;;;;;;;;;;;22.60;56.50;;;;;;5070475;28;1365;-63
2020/12/15 06:35:57;;;;;;;;;;;22.60;56.40;;;;;;5083034;28;1099;-63
2020/12/15 06:38:22;;;;;;;;;;;22.60;56.40;;;;;;5091376;28;1963;-64
2020/12/15 06:40:48;;;;;;;;;;;22.60;56.60;;;;;;5072965;28;1326;-65
2020/12/15 06:43:27;;;;;;;;;;;22.50;56.70;;;;;;5071125;28;1328;-63
2020/12/15 06:46:08;;;;;;;;;;;22.50;56.70;;;;;;5071899;28;1332;-64
2020/12/15 06:48:37;;;;;;;;;;;22.50;56.90;;;;;;5068941;28;1338;-64
2020/12/15 06:51:03;;;;;;;;;;;22.50;56.90;;;;;;5070985;28;1326;-65
2020/12/15 06:53:28;;;;;;;;;;;22.50;56.90;;;;;;5053900;28;1300;-64
2020/12/15 06:56:00;;;;;;;;;;;22.40;56.80;;;;;;5070214;28;1303;-65
2020/12/15 06:58:25;;;;;;;;;;;22.40;56.80;;;;;;5063234;28;1955;-66
2020/12/15 07:00:51;;;;;;;;;;;22.40;56.80;;;;;;5038188;28;1360;-65
2020/12/15 07:03:17;;;;;;;;;;;22.40;56.80;;;;;;5074473;28;1325;-65
2020/12/15 07:05:42;;;;;;;;;;;22.40;56.90;;;;;;5056879;28;1323;-65
2020/12/15 07:08:08;;;;;;;;;;;22.40;57.10;;;;;;5073902;28;1361;-66
2020/12/15 07:10:34;;;;;;;;;;;22.40;57.10;;;;;;5056013;28;1272;-66
2020/12/15 07:12:59;;;;;;;;;;;22.30;57.00;;;;;;5074532;28;1369;-65
2020/12/15 07:15:25;;;;;;;;;;;22.40;57.10;;;;;;5071297;28;1315;-63
2020/12/15 07:17:51;;;;;;;;;;;22.30;57.20;;;;;;5074394;28;1898;-61
2020/12/15 07:20:20;;;;;;;;;;;22.30;57.30;;;;;;5056605;28;1335;-63
2020/12/15 07:22:45;;;;;;;;;;;22.30;57.30;;;;;;5055806;28;1204;-63
2020/12/15 07:25:11;;;;;;;;;;;22.30;57.30;;;;;;5050051;28;1573;-64
2020/12/15 07:27:37;;;;;;;;;;;22.30;57.30;;;;;;5053506;28;1084;-64
2020/12/15 07:30:06;;;;;;;;;;;22.30;57.30;;;;;;5053067;28;1525;-64
2020/12/15 07:32:36;;;;;;;;;;;22.30;57.30;;;;;;5042354;28;1002;-64
2020/12/15 07:35:05;;;;;;;;;;;22.30;57.40;;;;;;5036302;28;1293;-65
2020/12/15 07:37:33;;;;;;;;;;;22.30;57.50;;;;;;5054368;28;1913;-65
2020/12/15 07:40:03;;;;;;;;;;;22.30;57.70;;;;;;5054213;28;1375;-62
2020/12/15 07:42:29;;;;;;;;;;;22.20;57.70;;;;;;5044459;28;1152;-64
2020/12/15 07:44:55;;;;;;;;;;;22.20;57.60;;;;;;5053982;28;1273;-65
2020/12/15 07:47:20;;;;;;;;;;;22.20;57.50;;;;;;5036419;28;1362;-65
2020/12/15 07:49:50;;;;;;;;;;;22.20;57.60;;;;;;5063231;28;1324;-63
2020/12/15 07:52:26;;;;;;;;;;;22.20;57.90;;;;;;5054918;28;993;-64
2020/12/15 07:54:58;;;;;;;;;;;22.20;58.00;;;;;;5053676;28;1314;-65
2020/12/15 07:57:24;;;;;;;;;;;22.20;58.00;;;;;;5052557;28;1960;-65
2020/12/15 07:59:49;;;;;;;;;;;22.20;58.00;;;;;;5068125;28;1311;-66
2020/12/15 08:02:18;;;;;;;;;;;22.20;58.00;;;;;;5068421;28;1273;-65
2020/12/15 08:04:43;;;;;;;;;;;22.20;58.20;;;;;;5067984;28;1377;-65
2020/12/15 08:07:10;;;;;;;;;;;22.20;58.40;;;;;;5052347;28;1259;-65
2020/12/15 08:09:36;;;;;;;;;;;22.10;58.60;;;;;;5068580;28;1336;-65
2020/12/15 08:12:02;;;;;;;;;;;22.10;58.60;;;;;;5069624;28;1408;-63
2020/12/15 08:14:28;;;;;;;;;;;22.10;58.50;;;;;;5053999;28;1279;-64
2020/12/15 08:16:53;;;;;;;;;;;22.10;58.40;;;;;;5061216;28;2312;-64
2020/12/15 08:19:21;;;;;;;;;;;22.10;58.40;;;;;;5035691;28;1898;-65
2020/12/15 08:21:48;;;;;;;;;;;22.10;58.40;;;;;;5052778;28;1501;-64
2020/12/15 08:24:14;;;;;;;;;;;22.10;58.30;;;;;;5069194;28;1280;-63
2020/12/15 08:26:40;;;;;;;;;;;22.10;58.30;;;;;;5053912;28;1293;-64
2020/12/15 08:29:07;;;;;;;;;;;22.10;58.30;;;;;;5054087;28;1256;-65
2020/12/15 08:31:33;;;;;;;;;;;22.10;58.20;;;;;;5052923;28;1276;-65
2020/12/15 08:33:59;;;;;;;;;;;22.10;58.20;;;;;;5069254;28;1322;-65
2020/12/15 08:36:24;;;;;;;;;;;22.10;58.20;;;;;;5052085;28;1334;-65
2020/12/15 08:38:50;;;;;;;;;;;22.10;58.30;;;;;;5046506;28;2158;-65
2020/12/15 08:41:15;;;;;;;;;;;22.10;58.20;;;;;;5054096;28;1315;-65
2020/12/15 08:43:41;;;;;;;;;;;22.10;58.20;;;;;;5054057;28;1119;-65
2020/12/15 08:46:13;;;;;;;;;;;22.10;58.10;;;;;;5068741;28;1302;-64
2020/12/15 08:48:39;;;;;;;;;;;22.10;57.90;;;;;;5069817;28;1373;-64
2020/12/15 08:51:10;;;;;;;;;;;22.10;57.80;;;;;;5054072;28;1726;-66
2020/12/15 08:53:35;;;;;;;;;;;22.10;57.60;;;;;;5068778;28;1659;-64
2020/12/15 08:56:10;;;;;;;;;;;22.10;58.10;;;;;;5068717;28;1390;-64
2020/12/15 08:58:36;;;;;;;;;;;22.20;57.70;;;;;;5036245;28;1914;-65
2020/12/15 09:01:01;;;;;;;;;;;22.20;57.40;;;;;;5053702;28;1728;-65
2020/12/15 09:03:27;;;;;;;;;;;22.20;57.30;;;;;;5053353;28;1664;-63
2020/12/15 09:05:53;;;;;;;;;;;22.30;57.30;;;;;;5068443;28;1711;-65
2020/12/15 09:08:19;;;;;;;;;;;22.30;57.20;;;;;;5053736;28;1364;-66
2020/12/15 09:10:45;;;;;;;;;;;22.30;57.10;;;;;;5068889;28;1726;-65
2020/12/15 09:13:10;;;;;;;;;;;22.30;57.10;;;;;;5053268;28;1678;-65
2020/12/15 09:15:51;;;;;;;;;;;22.30;57.00;;;;;;5052858;28;1845;-65
2020/12/15 09:18:17;;;;;;;;;;;22.30;57.30;;;;;;5068736;28;1894;-64
2020/12/15 09:20:43;;;;;;;;;;;22.40;57.10;;;;;;5053426;28;1399;-64
2020/12/15 09:23:09;;;;;;;;;;;22.40;57.00;;;;;;5068069;28;1297;-65
2020/12/15 09:25:34;;;;;;;;;;;22.40;57.00;;;;;;5060876;28;1754;-64
2020/12/15 09:28:00;;;;;;;;;;;22.40;57.10;;;;;;5068677;28;1698;-65
2020/12/15 09:30:25;;;;;;;;;;;22.30;57.30;;;;;;5068784;28;1803;-64
2020/12/15 09:32:51;;;;;;;;;;;22.30;57.40;;;;;;5053295;28;1703;-64
2020/12/15 09:35:17;;;;;;;;;;;22.40;57.80;;;;;;5058706;28;1408;-65
2020/12/15 09:37:43;;;;;;;;;;;22.40;58.50;;;;;;5070907;28;1965;-65
2020/12/15 09:40:09;;;;;;;;;;;22.40;58.10;;;;;;5071747;28;1375;-65
2020/12/15 09:42:37;;;;;;;;;;;22.30;57.90;;;;;;5071792;28;1287;-64
2020/12/15 09:45:06;;;;;;;;;;;22.30;57.90;;;;;;5072108;28;1769;-65
2020/12/15 09:47:32;;;;;;;;;;;22.30;57.80;;;;;;5071418;28;1668;-66
2020/12/15 09:49:57;;;;;;;;;;;22.30;57.80;;;;;;5071402;28;1695;-65
2020/12/15 09:52:24;;;;;;;;;;;22.30;57.90;;;;;;5072690;28;1393;-64
2020/12/15 09:54:50;;;;;;;;;;;22.30;57.80;;;;;;5072506;28;1664;-64
2020/12/15 09:57:15;;;;;;;;;;;22.30;57.70;;;;;;5072439;28;1752;-66
2020/12/15 09:59:41;;;;;;;;;;;22.30;57.70;;;;;;5063757;28;1961;-64
2020/12/15 10:02:06;;;;;;;;;;;22.30;57.80;;;;;;5054942;28;1734;-64
2020/12/15 10:04:32;;;;;;;;;;;22.30;57.70;;;;;;5054284;28;1186;-63
2020/12/15 10:06:57;;;;;;;;;;;22.30;57.80;;;;;;5072128;28;1374;-63
2020/12/15 10:09:23;;;;;;;;;;;22.20;57.90;;;;;;5072445;28;1354;-65
2020/12/15 10:11:49;;;;;;;;;;;22.20;57.80;;;;;;5054772;28;1382;-65
2020/12/15 10:14:14;;;;;;;;;;;22.20;57.80;;;;;;5071606;28;1681;-64
2020/12/15 10:16:40;;;;;;;;;;;22.30;57.80;;;;;;5072302;28;1397;-65
2020/12/15 10:19:08;;;;;;;;;;;22.30;57.80;;;;;;5054167;28;1898;-66
2020/12/15 10:21:35;;;;;;;;;;;22.20;57.70;;;;;;5072739;28;1387;-64
2020/12/15 10:24:00;;;;;;;;;;;22.20;57.80;;;;;;5072128;28;1697;-64
2020/12/15 10:26:26;;;;;;;;;;;22.20;57.80;;;;;;5054042;28;1705;-64
2020/12/15 10:28:52;;;;;;;;;;;22.20;57.90;;;;;;5065180;28;1684;-64
2020/12/15 10:31:18;;;;;;;;;;;22.20;57.90;;;;;;5051256;28;1419;-64
2020/12/15 10:33:44;;;;;;;;;;;22.10;57.80;;;;;;5051926;28;1549;-64
2020/12/15 10:36:10;;;;;;;;;;;22.20;57.90;;;;;;5065912;28;1256;-64
2020/12/15 10:38:36;;;;;;;;;;;22.20;57.90;;;;;;5041235;28;1906;-64
2020/12/15 10:41:01;;;;;;;;;;;22.10;58.00;;;;;;5076181;28;1307;-64
2020/12/15 10:43:26;;;;;;;;;;;22.20;57.90;;;;;;5075648;28;1387;-64
2020/12/15 10:45:52;;;;;;;;;;;22.20;58.30;;;;;;5075663;28;1406;-64
2020/12/15 10:48:17;;;;;;;;;;;22.20;57.60;;;;;;5075997;28;1282;-64
2020/12/15 10:50:43;;;;;;;;;;;22.20;57.60;;;;;;5041570;28;1460;-63
2020/12/15 10:53:10;;;;;;;;;;;22.20;57.40;;;;;;5075721;28;1295;-64
2020/12/15 10:55:36;;;;;;;;;;;22.30;57.40;;;;;;5075383;28;1455;-64
2020/12/15 10:58:02;;;;;;;;;;;22.30;57.30;;;;;;5055413;28;1910;-65
2020/12/15 11:00:27;;;;;;;;;;;22.30;57.10;;;;;;5038572;28;1432;-64
2020/12/15 11:02:53;;;;;;;;;;;22.40;57.00;;;;;;5048232;28;2251;-64
2020/12/15 11:05:18;;;;;;;;;;;22.40;56.90;;;;;;5049286;28;1253;-65
2020/12/15 11:07:45;;;;;;;;;;;22.40;56.80;;;;;;5048981;28;2188;-65
2020/12/15 11:10:10;;;;;;;;;;;22.40;56.70;;;;;;5068092;28;1914;-65
2020/12/15 11:12:36;;;;;;;;;;;22.50;56.60;;;;;;5057327;28;1299;-63
2020/12/15 11:15:01;;;;;;;;;;;22.50;56.60;;;;;;5074994;28;1319;-64
2020/12/15 11:17:27;;;;;;;;;;;22.50;56.70;;;;;;5075066;28;1898;-63
2020/12/15 11:19:52;;;;;;;;;;;22.50;56.70;;;;;;5075490;28;1338;-63
2020/12/15 11:22:18;;;;;;;;;;;22.50;56.50;;;;;;5041270;28;1362;-64
2020/12/15 11:24:43;;;;;;;;;;;22.50;56.60;;;;;;5075347;28;1344;-65
2020/12/15 11:27:09;;;;;;;;;;;22.50;56.50;;;;;;5056746;28;1369;-65
2020/12/15 11:29:34;;;;;;;;;;;22.50;56.50;;;;;;5044255;28;1367;-65
2020/12/15 11:32:00;;;;;;;;;;;22.60;56.50;;;;;;5054900;28;1331;-64
2020/12/15 11:34:25;;;;;;;;;;;22.50;56.50;;;;;;5053740;28;1347;-65
2020/12/15 11:36:53;;;;;;;;;;;22.50;56.50;;;;;;5054801;28;1355;-65
2020/12/15 11:39:20;;;;;;;;;;;22.50;56.50;;;;;;5036894;28;1898;-65
2020/12/15 11:41:46;;;;;;;;;;;22.50;56.50;;;;;;5053624;28;1445;-65
2020/12/15 11:44:11;;;;;;;;;;;22.50;56.70;;;;;;5054685;28;1329;-65
2020/12/15 11:46:37;;;;;;;;;;;22.50;56.50;;;;;;5052841;28;1352;-65
2020/12/15 11:49:02;;;;;;;;;;;22.50;56.60;;;;;;5061313;28;1491;-64
2020/12/15 11:51:28;;;;;;;;;;;22.50;56.70;;;;;;5056505;28;1308;-65
2020/12/15 11:53:53;;;;;;;;;;;22.50;56.70;;;;;;5074701;28;1329;-65
2020/12/15 11:56:19;;;;;;;;;;;22.40;56.60;;;;;;5074017;28;1385;-65
2020/12/15 11:58:44;;;;;;;;;;;22.50;56.90;;;;;;5071254;28;1948;-65
2020/12/15 12:01:10;;;;;;;;;;;22.40;56.90;;;;;;5054230;28;1377;-64
2020/12/15 12:03:36;;;;;;;;;;;22.40;57.20;;;;;;5055219;28;1483;-65
2020/12/15 12:06:01;;;;;;;;;;;22.40;57.20;;;;;;5075487;28;1329;-65
2020/12/15 12:08:27;;;;;;;;;;;22.40;54.20;;;;;;5077017;28;1362;-64
2020/12/15 12:10:52;;;;;;;;;;;22.40;50.50;;;;;;5094877;28;1379;-65
2020/12/15 12:13:18;;;;;;;;;;;22.30;48.30;;;;;;5055110;28;1228;-63
2020/12/15 12:15:43;;;;;;;;;;;22.20;46.40;;;;;;5053980;28;1824;-64
2020/12/15 12:18:09;;;;;;;;;;;22.10;45.20;;;;;;5066327;28;1890;-65
2020/12/15 12:20:35;;;;;;;;;;;22.00;44.90;;;;;;5067796;28;1284;-64
2020/12/15 12:23:01;;;;;;;;;;;21.90;43.80;;;;;;5060481;28;1268;-64
2020/12/15 12:25:26;;;;;;;;;;;21.90;43.70;;;;;;5051941;28;1919;-65
2020/12/15 12:27:52;;;;;;;;;;;21.80;43.30;;;;;;5073748;28;1283;-64
2020/12/15 12:30:17;;;;;;;;;;;21.70;42.80;;;;;;5074508;28;1222;-66
2020/12/15 12:32:43;;;;;;;;;;;21.70;42.50;;;;;;5070463;28;1950;-66
2020/12/15 12:35:08;;;;;;;;;;;21.70;42.00;;;;;;5073061;28;1254;-65
2020/12/15 12:37:34;;;;;;;;;;;21.60;41.70;;;;;;5072536;28;1973;-64
2020/12/15 12:39:59;;;;;;;;;;;21.50;41.60;;;;;;5077765;28;1390;-65
2020/12/15 12:42:25;;;;;;;;;;;21.50;41.80;;;;;;5093215;28;1281;-64
2020/12/15 12:44:50;;;;;;;;;;;21.40;41.20;;;;;;5092522;28;1319;-64
2020/12/15 12:47:16;;;;;;;;;;;21.40;41.00;;;;;;5063129;28;2041;-65
2020/12/15 12:49:41;;;;;;;;;;;21.30;41.20;;;;;;5080763;28;1664;-63
2020/12/15 12:52:07;;;;;;;;;;;21.30;40.60;;;;;;5057827;28;1331;-64
2020/12/15 12:54:32;;;;;;;;;;;21.20;40.40;;;;;;5051044;28;1321;-65
2020/12/15 12:56:58;;;;;;;;;;;21.20;40.20;;;;;;5052806;28;1972;-63
2020/12/15 12:59:23;;;;;;;;;;;21.10;40.50;;;;;;5050482;28;1910;-64
2020/12/15 13:01:49;;;;;;;;;;;21.10;40.20;;;;;;5034510;28;1450;-64
2020/12/15 13:04:14;;;;;;;;;;;21.00;40.20;;;;;;5051833;28;1753;-65
2020/12/15 13:06:40;;;;;;;;;;;21.00;40.10;;;;;;5052481;28;1244;-64
2020/12/15 13:09:05;;;;;;;;;;;21.00;40.20;;;;;;5051014;28;1288;-65
2020/12/15 13:11:31;;;;;;;;;;;20.90;40.10;;;;;;5051060;28;1324;-64
2020/12/15 13:13:56;;;;;;;;;;;20.90;40.10;;;;;;5033961;28;1353;-64
2020/12/15 13:16:22;;;;;;;;;;;20.90;40.10;;;;;;5050755;28;1221;-64
2020/12/15 13:18:47;;;;;;;;;;;20.80;39.80;;;;;;5050564;28;1910;-63
2020/12/15 13:21:13;;;;;;;;;;;20.80;39.80;;;;;;5051831;28;1773;-63
2020/12/15 13:23:38;;;;;;;;;;;20.70;39.60;;;;;;5051788;28;1260;-64
2020/12/15 13:26:04;;;;;;;;;;;20.70;39.50;;;;;;5051977;28;1260;-65
2020/12/15 13:28:29;;;;;;;;;;;20.70;39.60;;;;;;5061765;28;1283;-64
2020/12/15 13:30:55;;;;;;;;;;;20.60;39.50;;;;;;5061247;28;1311;-63
2020/12/15 13:33:20;;;;;;;;;;;20.60;39.60;;;;;;5071658;28;1275;-64
2020/12/15 13:35:46;;;;;;;;;;;20.60;39.50;;;;;;5072192;28;1176;-64
2020/12/15 13:38:11;;;;;;;;;;;20.60;39.40;;;;;;5054659;28;1973;-64
2020/12/15 13:40:37;;;;;;;;;;;20.60;39.40;;;;;;5054778;28;1220;-64
2020/12/15 13:43:02;;;;;;;;;;;20.50;39.30;;;;;;5054268;28;1256;-64
2020/12/15 13:45:28;;;;;;;;;;;20.50;39.30;;;;;;5053320;28;1275;-64
2020/12/15 13:47:53;;;;;;;;;;;20.50;39.30;;;;;;5065823;28;1387;-63
2020/12/15 13:50:19;;;;;;;;;;;20.50;39.20;;;;;;5068802;28;1444;-64
2020/12/15 13:52:44;;;;;;;;;;;20.40;39.00;;;;;;5072261;28;1248;-64
2020/12/15 13:55:10;;;;;;;;;;;20.40;39.20;;;;;;5053000;28;1294;-64
2020/12/15 13:57:36;;;;;;;;;;;20.40;39.10;;;;;;5090246;28;1918;-65
2020/12/15 14:00:02;;;;;;;;;;;20.40;39.10;;;;;;5091875;28;1300;-63
2020/12/15 14:02:27;;;;;;;;;;;20.40;39.10;;;;;;5073862;28;1271;-64
2020/12/15 14:04:53;;;;;;;;;;;20.30;39.20;;;;;;5073220;28;1313;-65
2020/12/15 14:07:18;;;;;;;;;;;20.30;39.00;;;;;;5091645;28;1250;-64
2020/12/15 14:09:44;;;;;;;;;;;20.30;39.10;;;;;;5051971;28;1384;-64
2020/12/15 14:12:09;;;;;;;;;;;20.30;39.20;;;;;;5088559;28;1279;-64
2020/12/15 14:14:37;;;;;;;;;;;20.30;39.10;;;;;;5091044;28;1291;-64
2020/12/15 14:17:02;;;;;;;;;;;20.30;39.10;;;;;;5057198;28;1877;-63
2020/12/15 14:19:28;;;;;;;;;;;20.20;39.00;;;;;;5050462;28;1902;-63
2020/12/15 14:21:53;;;;;;;;;;;20.20;39.20;;;;;;5062262;28;1548;-63
2020/12/15 14:24:21;;;;;;;;;;;20.20;39.20;;;;;;5071170;28;1178;-63